Knoxville (TYS/KTYS)

Map

Destinations

Information

Location
Knoxville, TN
Local Time
00:25 / 12:25 am
GMT Time
05:25 / 5:25 am
Gates
Unassigned
No FAA reported delays
METAR KTYS 260453Z 00000KT 10SM CLR 03/M07 A3010 RMK AO2 SLP193 T00331067 402110033
TAF KTYS 252333Z 2600/2624 29010KT P6SM SKC FM261500 VRB04KT P6SM SCT200 FM261800 21005KT P6SM SKC
  • No charts available